Time;durP1;ratioP1;P1;durP2;ratioP2;P2;SDS_P1;SDS_P2;PMS_P1;PMS_P2;Temp;Humidity;BMP_temperature;BMP_pressure;BME280_temperature;BME280_humidity;BME280_pressure;Samples;Min_cycle;Max_cycle;Signal;HPM_P1;HPM_P2
2022/03/09 00:02:13;;;;;;;4.53;1.90;;;4.80;57.50;;;;;;5138426;27;38768;-58
2022/03/09 00:04:41;;;;;;;5.00;2.17;;;4.80;57.40;;;;;;5139607;27;38667;-58
2022/03/09 00:07:08;;;;;;;6.85;3.42;;;4.80;57.40;;;;;;5140231;27;38409;-58
2022/03/09 00:09:37;;;;;;;5.70;2.22;;;4.80;57.30;;;;;;5138679;27;37181;-57
2022/03/09 00:12:05;;;;;;;5.25;2.20;;;4.90;57.20;;;;;;5139067;27;38587;-58
2022/03/09 00:14:33;;;;;;;5.18;2.20;;;4.90;57.10;;;;;;5139882;27;37999;-57
2022/03/09 00:17:00;;;;;;;5.22;2.15;;;4.90;57.10;;;;;;5139319;27;37782;-58
2022/03/09 00:19:27;;;;;;;4.18;2.15;;;4.90;57.10;;;;;;5138982;27;36320;-58
2022/03/09 00:21:55;;;;;;;11.63;2.58;;;4.80;57.00;;;;;;5137910;27;37808;-58
2022/03/09 00:24:23;;;;;;;7.15;2.20;;;4.80;57.20;;;;;;5139920;27;36517;-57
2022/03/09 00:26:51;;;;;;;7.80;2.28;;;4.80;57.30;;;;;;5138505;27;37328;-58
2022/03/09 00:29:18;;;;;;;4.65;2.22;;;4.70;57.40;;;;;;5138853;27;35054;-57
2022/03/09 00:31:46;;;;;;;6.75;2.40;;;4.60;57.40;;;;;;5138006;27;37384;-58
2022/03/09 00:34:14;;;;;;;6.60;2.28;;;4.60;57.60;;;;;;5138906;27;37734;-56
2022/03/09 00:36:41;;;;;;;5.38;2.53;;;4.60;57.60;;;;;;5138003;27;37192;-56
2022/03/09 00:39:09;;;;;;;4.72;2.55;;;4.60;57.60;;;;;;5138280;27;37247;-56
2022/03/09 00:41:36;;;;;;;5.53;2.45;;;4.60;57.70;;;;;;5136919;27;37718;-56
2022/03/09 00:44:05;;;;;;;4.60;2.33;;;4.50;57.80;;;;;;5137549;27;37448;-56
2022/03/09 00:46:33;;;;;;;5.68;2.67;;;4.50;57.90;;;;;;5136859;27;38078;-56
2022/03/09 00:49:00;;;;;;;7.70;2.75;;;4.50;57.90;;;;;;5137591;27;37479;-56
2022/03/09 00:51:27;;;;;;;7.05;2.85;;;4.50;57.90;;;;;;5138377;27;38382;-56
2022/03/09 00:53:55;;;;;;;6.40;2.63;;;4.50;58.10;;;;;;5138221;27;36417;-56
2022/03/09 00:56:22;;;;;;;5.28;2.65;;;4.50;58.00;;;;;;5138439;27;38629;-55
2022/03/09 00:58:49;;;;;;;5.93;2.47;;;4.50;58.00;;;;;;5137798;27;36559;-56
2022/03/09 01:01:18;;;;;;;11.95;2.50;;;4.50;58.00;;;;;;5137315;27;36193;-56
2022/03/09 01:03:46;;;;;;;6.47;2.90;;;4.50;58.10;;;;;;5138557;27;21975;-55
2022/03/09 01:06:15;;;;;;;5.80;2.55;;;4.50;58.20;;;;;;5138028;27;39050;-56
2022/03/09 01:08:43;;;;;;;7.05;2.47;;;4.50;58.10;;;;;;5138233;27;35434;-55
2022/03/09 01:11:10;;;;;;;6.43;2.72;;;4.50;58.10;;;;;;5138036;27;37146;-56
2022/03/09 01:13:38;;;;;;;5.88;2.90;;;4.50;58.10;;;;;;5138137;27;39407;-56
2022/03/09 01:16:06;;;;;;;5.30;2.75;;;4.50;58.10;;;;;;5138999;27;36092;-56
2022/03/09 01:18:34;;;;;;;5.60;2.75;;;4.40;58.30;;;;;;5137677;27;35400;-56
2022/03/09 01:21:02;;;;;;;6.20;2.70;;;4.40;58.50;;;;;;5138679;27;38139;-55
2022/03/09 01:23:29;;;;;;;5.78;2.90;;;4.30;58.70;;;;;;5137807;27;37862;-57
2022/03/09 01:25:56;;;;;;;6.32;2.75;;;4.20;58.90;;;;;;5138739;27;37055;-57
2022/03/09 01:28:24;;;;;;;6.28;2.83;;;4.20;59.00;;;;;;5137544;27;36345;-57
2022/03/09 01:30:51;;;;;;;10.90;2.85;;;4.20;59.10;;;;;;5138478;27;37669;-56
2022/03/09 01:33:18;;;;;;;7.68;4.35;;;4.20;59.20;;;;;;5137817;27;38736;-57
2022/03/09 01:35:47;;;;;;;6.97;3.17;;;4.10;59.50;;;;;;5137518;27;37282;-56
2022/03/09 01:38:14;;;;;;;6.90;2.70;;;4.00;59.80;;;;;;5137538;27;36379;-57
2022/03/09 01:40:42;;;;;;;6.22;3.00;;;3.90;60.20;;;;;;5135314;27;37396;-56
2022/03/09 01:43:09;;;;;;;6.18;2.97;;;3.80;60.30;;;;;;5137703;27;36406;-57
2022/03/09 01:45:36;;;;;;;6.90;2.80;;;3.80;60.50;;;;;;5139434;27;39053;-56
2022/03/09 01:48:04;;;;;;;6.28;2.85;;;3.80;60.60;;;;;;5141466;27;36092;-57
2022/03/09 01:50:32;;;;;;;7.50;3.50;;;3.80;60.90;;;;;;5140766;27;38191;-56
2022/03/09 01:53:00;;;;;;;6.72;2.97;;;3.80;60.90;;;;;;5141165;27;39046;-57
2022/03/09 01:55:28;;;;;;;6.45;3.10;;;3.80;60.90;;;;;;5141178;27;37656;-57
2022/03/09 01:57:55;;;;;;;6.90;3.20;;;3.80;61.10;;;;;;5140883;27;37371;-57
2022/03/09 02:00:23;;;;;;;6.13;3.03;;;3.70;61.40;;;;;;5140380;27;38236;-56
2022/03/09 02:02:50;;;;;;;6.15;3.30;;;3.70;61.50;;;;;;5139220;27;37036;-57
2022/03/09 02:05:17;;;;;;;6.18;3.08;;;3.60;62.00;;;;;;5139927;27;37243;-57
2022/03/09 02:10:31;;;;;;;8.15;3.38;;;3.50;62.90;;;;;;5141363;27;38709;-58
2022/03/09 02:12:58;;;;;;;9.07;3.70;;;3.50;63.40;;;;;;5141378;27;38806;-57
2022/03/09 02:15:26;;;;;;;5.88;2.90;;;3.40;64.20;;;;;;5141236;27;37978;-57
2022/03/09 02:17:53;;;;;;;8.88;2.90;;;3.40;63.60;;;;;;5141613;27;35899;-57
2022/03/09 02:20:20;;;;;;;6.40;3.30;;;3.40;63.50;;;;;;5142260;27;39459;-57
2022/03/09 02:22:49;;;;;;;7.00;3.45;;;3.40;63.50;;;;;;5140386;27;37423;-57
2022/03/09 02:25:17;;;;;;;6.68;3.30;;;3.40;63.50;;;;;;5139877;27;36122;-57
2022/03/09 02:27:45;;;;;;;6.68;3.50;;;3.40;63.50;;;;;;5140936;27;35149;-57
2022/03/09 02:30:14;;;;;;;5.60;2.78;;;3.50;63.50;;;;;;5140889;27;37792;-57
2022/03/09 02:32:42;;;;;;;8.60;3.75;;;3.50;63.60;;;;;;5139507;27;36388;-57
2022/03/09 02:35:11;;;;;;;8.18;3.60;;;3.50;63.50;;;;;;5140218;27;35999;-57
2022/03/09 02:37:38;;;;;;;7.43;3.47;;;3.50;63.50;;;;;;5140147;27;37088;-56
2022/03/09 02:40:10;;;;;;;7.20;3.35;;;3.50;63.60;;;;;;5139548;27;38287;-57
2022/03/09 02:42:37;;;;;;;7.57;4.07;;;3.50;64.00;;;;;;5138276;27;39394;-57
2022/03/09 02:45:06;;;;;;;9.90;3.75;;;3.40;64.00;;;;;;5139980;27;36137;-57
2022/03/09 02:47:33;;;;;;;6.90;3.20;;;3.40;64.00;;;;;;5140123;27;34281;-57
2022/03/09 02:50:01;;;;;;;7.40;3.92;;;3.40;64.00;;;;;;5140161;27;37381;-57
2022/03/09 02:52:28;;;;;;;7.88;3.47;;;3.40;64.00;;;;;;5139568;27;37620;-58
2022/03/09 02:54:56;;;;;;;7.65;3.85;;;3.40;64.10;;;;;;5138848;27;36086;-57
2022/03/09 02:57:24;;;;;;;10.07;3.92;;;3.40;64.30;;;;;;5141137;27;38336;-57
2022/03/09 02:59:52;;;;;;;8.98;4.00;;;3.30;64.40;;;;;;5140523;27;38389;-57
2022/03/09 03:02:19;;;;;;;8.30;3.70;;;3.40;64.60;;;;;;5138839;27;37851;-57
2022/03/09 03:04:46;;;;;;;8.63;3.90;;;3.30;64.60;;;;;;5140116;27;36065;-58
2022/03/09 03:07:13;;;;;;;10.18;3.90;;;3.30;64.40;;;;;;5138913;27;36549;-57
2022/03/09 03:09:41;;;;;;;7.10;3.58;;;3.30;64.40;;;;;;5137968;27;37694;-57
2022/03/09 03:12:09;;;;;;;7.28;3.80;;;3.30;64.40;;;;;;5140236;27;37543;-57
2022/03/09 03:14:37;;;;;;;7.13;3.35;;;3.30;64.50;;;;;;5139851;27;37617;-57
2022/03/09 03:17:04;;;;;;;8.02;3.67;;;3.30;64.60;;;;;;5141257;27;37310;-57
2022/03/09 03:19:32;;;;;;;7.10;3.50;;;3.30;64.50;;;;;;5138650;27;37722;-58
2022/03/09 03:21:59;;;;;;;7.07;3.50;;;3.30;64.50;;;;;;5139641;27;36490;-57
2022/03/09 03:24:28;;;;;;;9.02;3.90;;;3.30;64.80;;;;;;5137778;27;37096;-57
2022/03/09 03:26:55;;;;;;;8.05;4.05;;;3.20;64.80;;;;;;5138970;27;39518;-58
2022/03/09 03:29:22;;;;;;;9.88;4.00;;;3.20;65.10;;;;;;5138910;27;37446;-58
2022/03/09 03:31:52;;;;;;;8.85;3.83;;;3.20;65.10;;;;;;5139763;27;37390;-58
2022/03/09 03:34:19;;;;;;;7.85;3.85;;;3.20;65.30;;;;;;5139038;27;38180;-57
2022/03/09 03:36:46;;;;;;;6.80;3.78;;;3.20;65.60;;;;;;5140324;27;36671;-57
2022/03/09 03:39:14;;;;;;;7.40;3.55;;;3.10;65.90;;;;;;5139997;27;38259;-57
2022/03/09 03:41:42;;;;;;;8.80;3.83;;;3.10;66.00;;;;;;5138523;27;36438;-57
2022/03/09 03:44:09;;;;;;;12.43;4.22;;;3.10;66.30;;;;;;5139891;27;38305;-57
2022/03/09 03:46:36;;;;;;;9.25;4.70;;;3.10;66.90;;;;;;5140098;27;36182;-57
2022/03/09 03:49:05;;;;;;;8.02;4.10;;;3.10;67.20;;;;;;5138849;27;38161;-57
2022/03/09 03:51:32;;;;;;;7.80;3.67;;;3.10;67.60;;;;;;5139091;27;38704;-57
2022/03/09 03:54:00;;;;;;;8.45;4.20;;;3.10;67.70;;;;;;5139415;27;37989;-57
2022/03/09 03:56:27;;;;;;;9.63;4.75;;;3.10;67.70;;;;;;5138826;27;38870;-57
2022/03/09 03:58:54;;;;;;;8.73;3.55;;;3.00;68.60;;;;;;5138456;27;36287;-57
2022/03/09 04:01:22;;;;;;;7.85;4.10;;;3.00;68.10;;;;;;5138333;27;38097;-57
2022/03/09 04:03:49;;;;;;;8.88;4.25;;;3.00;68.20;;;;;;5136060;27;38485;-57
2022/03/09 04:06:18;;;;;;;8.90;4.53;;;3.00;68.20;;;;;;5136556;27;36408;-58
2022/03/09 04:08:45;;;;;;;12.43;4.32;;;3.00;68.30;;;;;;5135728;27;35523;-57
2022/03/09 04:11:12;;;;;;;9.77;4.25;;;3.00;68.30;;;;;;5138014;27;37720;-57
2022/03/09 04:13:42;;;;;;;8.57;4.35;;;2.90;68.40;;;;;;5138803;27;37193;-56
2022/03/09 04:16:10;;;;;;;6.72;3.78;;;2.90;68.40;;;;;;5138407;27;41557;-57
2022/03/09 04:18:37;;;;;;;9.35;4.15;;;2.90;68.50;;;;;;5138244;27;38111;-57
2022/03/09 04:21:05;;;;;;;7.43;4.00;;;2.90;68.80;;;;;;5137429;27;38093;-57
2022/03/09 04:23:33;;;;;;;10.10;4.68;;;2.80;68.80;;;;;;5138325;27;37799;-57
2022/03/09 04:26:01;;;;;;;8.65;4.30;;;2.90;68.80;;;;;;5139250;27;35870;-57
2022/03/09 04:28:28;;;;;;;8.90;4.00;;;2.80;69.00;;;;;;5138012;27;38686;-57
2022/03/09 04:30:56;;;;;;;8.70;3.90;;;2.70;69.40;;;;;;5139270;27;36499;-57
2022/03/09 04:33:24;;;;;;;10.77;4.40;;;2.60;69.80;;;;;;5138677;27;37726;-56
2022/03/09 04:35:51;;;;;;;12.57;4.43;;;2.50;70.40;;;;;;5138643;27;36774;-57
2022/03/09 04:38:19;;;;;;;10.15;4.90;;;2.50;70.80;;;;;;5138860;27;38785;-57
2022/03/09 04:40:47;;;;;;;8.18;4.35;;;2.50;70.80;;;;;;5138481;27;36546;-58
2022/03/09 04:43:15;;;;;;;7.95;4.03;;;2.50;70.50;;;;;;5138674;27;35981;-57
2022/03/09 04:45:42;;;;;;;9.80;5.00;;;2.60;70.50;;;;;;5138627;27;37000;-57
2022/03/09 04:48:09;;;;;;;9.98;4.78;;;2.60;70.50;;;;;;5138924;27;38463;-57
2022/03/09 04:50:37;;;;;;;10.57;4.55;;;2.60;70.00;;;;;;5138146;27;37740;-57
2022/03/09 04:53:04;;;;;;;11.45;5.03;;;2.70;69.60;;;;;;5137648;27;38114;-57
2022/03/09 04:55:31;;;;;;;9.35;4.55;;;2.70;69.40;;;;;;5138321;27;36899;-57
2022/03/09 04:58:00;;;;;;;7.32;3.88;;;2.80;69.10;;;;;;5138727;27;39344;-57
2022/03/09 05:00:27;;;;;;;6.80;3.55;;;2.80;68.90;;;;;;5138748;27;37948;-57
2022/03/09 05:02:55;;;;;;;8.88;4.78;;;2.80;69.00;;;;;;5137016;27;37287;-57
2022/03/09 05:05:22;;;;;;;9.40;4.85;;;2.80;68.80;;;;;;5139006;27;35203;-57
2022/03/09 05:07:49;;;;;;;8.85;4.70;;;2.20;68.50;;;;;;5139013;27;37442;-57
2022/03/09 05:10:17;;;;;;;8.80;4.22;;;2.80;68.80;;;;;;5138809;27;37693;-58
2022/03/09 05:12:44;;;;;;;15.35;5.10;;;2.80;68.90;;;;;;5138372;27;37434;-57
2022/03/09 05:15:13;;;;;;;10.32;5.00;;;2.70;69.30;;;;;;5138547;27;36530;-57
2022/03/09 05:17:41;;;;;;;9.05;5.53;;;2.80;69.40;;;;;;5137321;27;38669;-57
2022/03/09 05:20:10;;;;;;;9.50;4.53;;;2.70;69.50;;;;;;5142305;27;38591;-57
2022/03/09 05:22:37;;;;;;;10.50;5.00;;;2.80;69.60;;;;;;5142657;27;37381;-57
2022/03/09 05:25:07;;;;;;;9.13;4.70;;;2.70;69.80;;;;;;5142730;27;37003;-57
2022/03/09 05:27:35;;;;;;;8.25;4.28;;;2.70;69.70;;;;;;5141057;27;37634;-57
2022/03/09 05:30:02;;;;;;;9.38;4.78;;;2.70;70.00;;;;;;5140803;27;37710;-57
2022/03/09 05:32:31;;;;;;;9.27;5.00;;;2.60;70.00;;;;;;5140222;27;38489;-57
2022/03/09 05:34:58;;;;;;;9.25;4.55;;;2.60;70.10;;;;;;5140890;27;36714;-57
2022/03/09 05:37:28;;;;;;;10.70;4.88;;;2.60;70.30;;;;;;5140304;27;38979;-58
2022/03/09 05:39:55;;;;;;;10.43;4.55;;;2.60;70.20;;;;;;5141326;27;38930;-57
2022/03/09 05:42:22;;;;;;;12.45;5.15;;;2.60;70.40;;;;;;5142252;27;36743;-58
2022/03/09 05:44:50;;;;;;;8.55;4.38;;;2.60;70.40;;;;;;5142746;27;36887;-58
2022/03/09 05:47:17;;;;;;;12.65;4.65;;;2.50;70.40;;;;;;5140934;27;36407;-57
2022/03/09 05:49:46;;;;;;;8.40;4.57;;;2.60;70.40;;;;;;5141507;27;37626;-57
2022/03/09 05:52:13;;;;;;;10.20;4.97;;;2.60;70.40;;;;;;5141094;27;38292;-57
2022/03/09 05:54:40;;;;;;;9.30;4.75;;;2.60;70.40;;;;;;5140314;27;36995;-57
2022/03/09 05:57:08;;;;;;;9.55;4.65;;;2.60;70.20;;;;;;5142091;27;37288;-57
2022/03/09 05:59:35;;;;;;;8.88;4.55;;;2.60;70.30;;;;;;5141032;27;39196;-57
2022/03/09 06:02:02;;;;;;;13.75;4.90;;;2.60;70.20;;;;;;5139363;27;37796;-58
2022/03/09 06:04:30;;;;;;;10.80;5.05;;;2.50;70.20;;;;;;5140978;27;37951;-57
2022/03/09 06:06:58;;;;;;;8.25;4.35;;;2.50;70.20;;;;;;5140473;27;37428;-57
2022/03/09 06:09:26;;;;;;;9.52;4.50;;;2.60;70.10;;;;;;5140537;27;37381;-57
2022/03/09 06:11:53;;;;;;;9.77;5.07;;;2.60;70.30;;;;;;5141380;27;36086;-57
2022/03/09 06:14:20;;;;;;;8.93;4.88;;;2.60;70.10;;;;;;5141233;27;37364;-57
2022/03/09 06:16:48;;;;;;;10.15;4.55;;;2.70;70.10;;;;;;5141089;27;39885;-57
2022/03/09 06:19:16;;;;;;;12.85;5.18;;;2.70;70.10;;;;;;5141426;27;38044;-57
2022/03/09 06:21:43;;;;;;;9.30;4.68;;;2.80;69.90;;;;;;5138515;27;36092;-57
2022/03/09 06:24:12;;;;;;;9.30;4.97;;;2.90;69.70;;;;;;5140357;27;36250;-57
2022/03/09 06:26:39;;;;;;;8.32;4.38;;;3.00;69.60;;;;;;5140687;27;37558;-58
2022/03/09 06:29:08;;;;;;;9.38;4.95;;;3.20;69.10;;;;;;5140445;27;37745;-57
2022/03/09 06:31:36;;;;;;;13.40;5.15;;;3.30;68.70;;;;;;5138974;27;37258;-57
2022/03/09 06:34:03;;;;;;;9.90;5.07;;;3.40;68.30;;;;;;5139873;27;36644;-56
2022/03/09 06:36:31;;;;;;;8.38;4.63;;;3.50;68.00;;;;;;5140229;27;37345;-57
2022/03/09 06:38:58;;;;;;;11.65;4.53;;;3.70;67.60;;;;;;5140851;27;37893;-57
2022/03/09 06:41:27;;;;;;;11.48;5.18;;;3.70;67.50;;;;;;5139229;27;36034;-57
2022/03/09 06:43:54;;;;;;;9.70;5.45;;;3.70;67.10;;;;;;5137817;27;37616;-57
2022/03/09 06:46:22;;;;;;;10.77;5.05;;;3.80;67.00;;;;;;5137405;27;36912;-56
2022/03/09 06:48:50;;;;;;;9.15;4.57;;;3.80;67.40;;;;;;5136582;27;39297;-57
2022/03/09 06:51:17;;;;;;;9.43;5.28;;;3.90;67.20;;;;;;5139076;27;38465;-57
2022/03/09 06:53:45;;;;;;;12.32;5.13;;;3.90;66.90;;;;;;5141138;27;37076;-57
2022/03/09 06:56:13;;;;;;;10.88;5.35;;;4.00;66.40;;;;;;5140145;27;39767;-57
2022/03/09 06:58:41;;;;;;;11.25;6.07;;;4.10;66.50;;;;;;5140168;27;38187;-57
2022/03/09 07:01:09;;;;;;;11.38;6.28;;;4.10;67.00;;;;;;5140503;27;37406;-57
2022/03/09 07:03:36;;;;;;;10.15;5.43;;;4.20;66.60;;;;;;5138757;27;36673;-57
2022/03/09 07:06:04;;;;;;;10.85;4.82;;;4.20;66.70;;;;;;5138288;27;36276;-57
2022/03/09 07:08:31;;;;;;;9.68;4.75;;;4.30;66.60;;;;;;5139262;27;37844;-57
2022/03/09 07:10:59;;;;;;;12.98;5.07;;;4.40;66.20;;;;;;5139767;27;37282;-57
2022/03/09 07:13:27;;;;;;;13.30;5.28;;;4.60;66.10;;;;;;5138745;27;36385;-57
2022/03/09 07:15:55;;;;;;;9.23;4.82;;;4.60;65.70;;;;;;5139930;27;38599;-57
2022/03/09 07:18:23;;;;;;;9.52;4.85;;;4.70;65.50;;;;;;5137672;27;36696;-57
2022/03/09 07:20:50;;;;;;;10.85;5.90;;;4.80;65.40;;;;;;5140591;27;37483;-57
2022/03/09 07:23:17;;;;;;;8.73;5.15;;;5.00;65.40;;;;;;5140677;27;37404;-56
2022/03/09 07:25:45;;;;;;;10.05;5.32;;;5.00;65.00;;;;;;5140780;27;37498;-57
2022/03/09 07:28:13;;;;;;;10.27;5.20;;;5.20;64.80;;;;;;5140391;27;40040;-57
2022/03/09 07:30:40;;;;;;;10.18;5.85;;;5.30;64.70;;;;;;5141149;27;38639;-57
2022/03/09 07:33:09;;;;;;;9.93;5.15;;;5.50;64.10;;;;;;5140307;27;36314;-57
2022/03/09 07:35:36;;;;;;;11.63;5.57;;;5.60;63.40;;;;;;5140256;27;37635;-57
2022/03/09 07:38:04;;;;;;;11.02;5.60;;;5.70;62.70;;;;;;5140517;27;37622;-57
2022/03/09 07:40:31;;;;;;;12.27;5.80;;;5.70;62.40;;;;;;5139550;27;38354;-57
2022/03/09 07:42:59;;;;;;;11.25;5.60;;;5.80;62.20;;;;;;5142050;27;38351;-58
2022/03/09 07:45:26;;;;;;;9.80;5.55;;;5.80;62.00;;;;;;5141207;27;37489;-57
2022/03/09 07:47:53;;;;;;;10.90;5.82;;;5.90;62.10;;;;;;5139813;27;37732;-58
2022/03/09 07:50:22;;;;;;;13.98;5.65;;;5.90;61.80;;;;;;5141683;27;37125;-57
2022/03/09 07:52:50;;;;;;;14.57;5.95;;;6.10;61.30;;;;;;5140634;27;35167;-57
2022/03/09 07:55:18;;;;;;;11.93;5.32;;;6.10;61.00;;;;;;5141930;27;40613;-57
2022/03/09 07:57:46;;;;;;;12.75;6.63;;;6.10;60.50;;;;;;5141177;27;37156;-57
2022/03/09 08:00:14;;;;;;;10.23;5.10;;;6.20;60.40;;;;;;5141027;27;37445;-58
2022/03/09 08:02:42;;;;;;;13.00;6.05;;;6.30;60.10;;;;;;5137835;27;37787;-58
2022/03/09 08:05:10;;;;;;;9.57;5.50;;;6.30;60.10;;;;;;5141512;27;37916;-57
2022/03/09 08:07:38;;;;;;;8.57;5.55;;;6.50;60.20;;;;;;5139853;27;38849;-57
2022/03/09 08:10:06;;;;;;;10.60;5.43;;;6.70;60.00;;;;;;5139878;27;38285;-57
2022/03/09 08:12:34;;;;;;;11.93;5.93;;;7.00;59.80;;;;;;5139988;27;36179;-57
2022/03/09 08:15:08;;;;;;;9.07;5.53;;;7.30;59.30;;;;;;5139308;27;39004;-57
2022/03/09 08:17:35;;;;;;;10.20;5.18;;;7.50;58.40;;;;;;5140232;27;36799;-57
2022/03/09 08:20:03;;;;;;;11.13;5.20;;;7.70;58.80;;;;;;5140725;27;36618;-58
2022/03/09 08:22:30;;;;;;;9.55;5.65;;;8.00;57.90;;;;;;5136417;27;37429;-57
2022/03/09 08:24:59;;;;;;;11.25;6.38;;;8.30;57.50;;;;;;5139582;27;37401;-57
2022/03/09 08:27:26;;;;;;;11.73;5.88;;;8.60;57.10;;;;;;5139898;27;37693;-57
2022/03/09 08:29:54;;;;;;;9.93;5.70;;;9.00;55.70;;;;;;5139254;27;38621;-58
2022/03/09 08:32:21;;;;;;;11.32;5.65;;;9.60;53.30;;;;;;5139357;27;38182;-58
2022/03/09 08:34:48;;;;;;;10.95;6.15;;;10.10;52.50;;;;;;5139591;27;37600;-58
2022/03/09 08:37:16;;;;;;;11.85;5.63;;;10.30;50.90;;;;;;5138302;27;37364;-57
2022/03/09 08:39:47;;;;;;;11.40;6.35;;;10.60;50.00;;;;;;5138853;27;39154;-58
2022/03/09 08:42:16;;;;;;;9.95;5.57;;;10.90;49.70;;;;;;5136738;27;37352;-57
2022/03/09 08:44:43;;;;;;;8.48;5.50;;;11.20;48.50;;;;;;5139802;27;38614;-57
2022/03/09 08:47:10;;;;;;;8.93;5.03;;;11.50;47.70;;;;;;5138973;27;39290;-58
2022/03/09 08:49:39;;;;;;;9.18;5.70;;;11.70;46.40;;;;;;5139126;27;37396;-58
2022/03/09 08:52:07;;;;;;;9.73;5.57;;;11.70;46.00;;;;;;5139814;27;36676;-58
2022/03/09 08:54:35;;;;;;;10.27;6.13;;;11.80;45.50;;;;;;5138761;27;38934;-58
2022/03/09 08:57:02;;;;;;;13.75;5.95;;;11.70;44.40;;;;;;5139104;27;37823;-57
2022/03/09 08:59:31;;;;;;;11.00;6.03;;;12.00;44.50;;;;;;5140117;27;37285;-58
2022/03/09 09:01:59;;;;;;;12.35;6.93;;;12.20;43.60;;;;;;5137307;27;35266;-57
2022/03/09 09:04:26;;;;;;;9.15;5.18;;;12.60;42.30;;;;;;5139586;27;36920;-58
2022/03/09 09:06:53;;;;;;;10.07;5.70;;;13.00;41.80;;;;;;5140306;27;38917;-58
2022/03/09 09:09:21;;;;;;;10.88;5.80;;;13.20;40.80;;;;;;5141052;27;38772;-58
2022/03/09 09:11:48;;;;;;;10.75;6.20;;;13.40;40.10;;;;;;5140599;27;37623;-58
2022/03/09 09:14:16;;;;;;;12.40;5.78;;;13.60;39.90;;;;;;5140041;27;38902;-58
2022/03/09 09:16:44;;;;;;;9.52;5.78;;;13.70;38.90;;;;;;5138228;27;36543;-58
2022/03/09 09:19:12;;;;;;;10.55;5.75;;;14.00;39.00;;;;;;5140583;27;36196;-58
2022/03/09 09:21:39;;;;;;;8.45;5.70;;;14.30;38.90;;;;;;5139351;27;36691;-56
2022/03/09 09:24:07;;;;;;;8.77;5.78;;;14.50;38.40;;;;;;5140450;27;38975;-55
2022/03/09 09:26:34;;;;;;;9.07;6.07;;;14.50;38.10;;;;;;5139448;27;37643;-56
2022/03/09 09:29:01;;;;;;;9.93;5.57;;;14.30;38.00;;;;;;5138149;27;37095;-55
2022/03/09 09:31:29;;;;;;;12.80;6.50;;;14.00;39.10;;;;;;5135165;27;37822;-56
2022/03/09 09:33:58;;;;;;;10.75;6.03;;;13.80;38.40;;;;;;5137818;27;38825;-56
2022/03/09 09:36:25;;;;;;;10.82;6.70;;;13.80;38.70;;;;;;5137306;27;36480;-56
2022/03/09 09:38:52;;;;;;;12.23;5.78;;;13.90;38.30;;;;;;5138926;27;38332;-56
2022/03/09 09:41:24;;;;;;;11.15;5.95;;;14.10;37.70;;;;;;5139517;27;36700;-56
2022/03/09 09:43:52;;;;;;;8.38;5.00;;;14.30;37.40;;;;;;5140137;27;37632;-56
2022/03/09 09:46:19;;;;;;;9.73;5.65;;;14.50;37.00;;;;;;5138153;27;36582;-56
2022/03/09 09:48:47;;;;;;;10.95;6.50;;;14.70;36.90;;;;;;5138025;27;38650;-58
2022/03/09 09:51:16;;;;;;;10.18;5.40;;;14.70;36.60;;;;;;5139444;27;36592;-58
2022/03/09 09:53:45;;;;;;;10.07;6.05;;;14.70;36.60;;;;;;5137574;27;36832;-58
2022/03/09 09:56:13;;;;;;;13.27;6.28;;;14.70;36.60;;;;;;5137966;27;39488;-58
2022/03/09 09:58:42;;;;;;;10.00;5.40;;;14.80;36.80;;;;;;5136936;27;36422;-56
2022/03/09 10:01:10;;;;;;;7.93;5.32;;;15.00;35.60;;;;;;5136840;27;36660;-55
2022/03/09 10:03:37;;;;;;;8.68;6.03;;;15.00;35.60;;;;;;5137557;27;39432;-56
2022/03/09 10:06:04;;;;;;;9.30;5.90;;;15.10;34.70;;;;;;5141599;27;36549;-56
2022/03/09 10:08:33;;;;;;;10.07;5.78;;;15.20;34.30;;;;;;5140987;27;37689;-56
2022/03/09 10:11:02;;;;;;;8.75;5.40;;;15.50;34.20;;;;;;5140849;27;36168;-56
2022/03/09 10:13:31;;;;;;;9.30;5.22;;;15.90;33.30;;;;;;5143670;27;36221;-56
2022/03/09 10:16:13;;;;;;;9.00;6.05;;;16.00;32.00;;;;;;5142351;27;36334;-55
2022/03/09 10:18:48;;;;;;;11.20;6.13;;;16.20;31.10;;;;;;5142803;27;37489;-55
2022/03/09 10:21:18;;;;;;;11.10;5.80;;;16.30;31.50;;;;;;5141776;27;36671;-56
2022/03/09 10:23:59;;;;;;;8.27;5.07;;;16.50;31.20;;;;;;5143044;27;36292;-55
2022/03/09 10:26:28;;;;;;;8.75;5.72;;;16.60;30.60;;;;;;5140641;27;38211;-55
2022/03/09 10:29:00;;;;;;;10.40;6.30;;;16.60;31.20;;;;;;5142116;27;38151;-55
2022/03/09 10:31:38;;;;;;;10.63;5.40;;;16.40;30.50;;;;;;5141726;27;38796;-56
2022/03/09 10:34:11;;;;;;;9.40;6.07;;;16.30;30.60;;;;;;5141217;27;38988;-55
2022/03/09 10:36:54;;;;;;;10.43;5.65;;;16.30;31.20;;;;;;5142135;27;39017;-55
2022/03/09 10:39:25;;;;;;;10.15;5.78;;;16.20;31.90;;;;;;5140495;27;37870;-55
2022/03/09 10:41:52;;;;;;;8.93;5.15;;;16.20;31.70;;;;;;5141090;27;37542;-55
2022/03/09 10:44:20;;;;;;;9.68;5.47;;;16.30;31.60;;;;;;5141823;27;37313;-55
2022/03/09 10:46:48;;;;;;;11.02;6.07;;;16.40;32.10;;;;;;5141715;27;38117;-55
2022/03/09 10:49:19;;;;;;;10.30;6.13;;;16.40;32.00;;;;;;5141992;27;37318;-56
2022/03/09 10:51:50;;;;;;;8.57;5.63;;;16.50;31.90;;;;;;5141471;27;36658;-56
2022/03/09 10:54:24;;;;;;;11.02;6.70;;;16.20;30.70;;;;;;5139546;27;37656;-56
2022/03/09 10:57:04;;;;;;;8.50;5.93;;;16.00;31.40;;;;;;5141814;27;38064;-56
2022/03/09 10:59:45;;;;;;;15.88;5.72;;;15.70;31.60;;;;;;5142432;27;37390;-56
2022/03/09 11:02:13;;;;;;;11.25;6.55;;;15.40;30.90;;;;;;5140906;27;37331;-56
2022/03/09 11:04:41;;;;;;;10.35;5.80;;;15.30;32.30;;;;;;5141136;27;37685;-56
2022/03/09 11:07:09;;;;;;;11.23;5.97;;;15.40;31.80;;;;;;5139834;27;38721;-55
2022/03/09 11:09:38;;;;;;;9.70;6.32;;;15.70;31.40;;;;;;5140855;27;36071;-55
2022/03/09 11:12:06;;;;;;;11.55;6.18;;;16.10;31.50;;;;;;5141192;27;37747;-56
2022/03/09 11:14:35;;;;;;;8.85;5.97;;;16.30;30.60;;;;;;5140431;27;36319;-56
2022/03/09 11:17:03;;;;;;;10.20;5.97;;;16.50;31.20;;;;;;5140847;27;36431;-55
2022/03/09 11:19:30;;;;;;;10.52;6.15;;;16.40;30.40;;;;;;5138412;27;37477;-56
2022/03/09 11:21:58;;;;;;;9.73;6.30;;;16.20;30.50;;;;;;5140625;27;38273;-56
2022/03/09 11:24:26;;;;;;;12.70;5.78;;;16.00;30.60;;;;;;5140745;27;39474;-56
2022/03/09 11:26:57;;;;;;;9.15;6.25;;;15.90;31.20;;;;;;5140667;27;37678;-56
2022/03/09 11:29:31;;;;;;;14.27;5.82;;;15.90;30.80;;;;;;5139291;27;39056;-56
2022/03/09 11:31:59;;;;;;;9.20;5.60;;;15.80;30.60;;;;;;5138865;27;37275;-55
2022/03/09 11:34:38;;;;;;;9.18;5.85;;;15.90;30.80;;;;;;5138851;27;37280;-56
2022/03/09 11:37:07;;;;;;;8.95;5.53;;;15.90;30.50;;;;;;5138381;27;36504;-55
2022/03/09 11:39:36;;;;;;;9.80;5.75;;;16.10;31.00;;;;;;5140857;27;37662;-55
2022/03/09 11:42:34;;;;;;;9.65;5.85;;;16.30;30.30;;;;;;5140631;27;36555;-56
2022/03/09 11:45:38;;;;;;;9.10;6.05;;;16.50;29.40;;;;;;5142078;27;38328;-56
2022/03/09 11:48:09;;;;;;;9.65;6.13;;;16.70;29.60;;;;;;5139309;27;38790;-55
2022/03/09 11:51:12;;;;;;;10.45;5.95;;;16.60;30.40;;;;;;5140796;27;37375;-56
2022/03/09 11:53:46;;;;;;;12.82;6.43;;;16.40;30.20;;;;;;5137603;27;35391;-55
2022/03/09 11:56:37;;;;;;;10.75;6.53;;;16.00;31.00;;;;;;5140506;27;37193;-56
2022/03/09 11:59:27;;;;;;;10.27;5.80;;;15.80;31.70;;;;;;5139646;27;38628;-56
2022/03/09 12:02:18;;;;;;;9.13;5.93;;;15.40;31.60;;;;;;5136943;27;38100;-55
2022/03/09 12:04:49;;;;;;;11.25;5.93;;;15.30;32.00;;;;;;5140349;27;36596;-55
2022/03/09 12:07:59;;;;;;;8.90;6.15;;;15.10;32.60;;;;;;5138690;27;38826;-56
2022/03/09 12:10:44;;;;;;;8.88;5.90;;;14.90;32.30;;;;;;5139640;27;38472;-56
2022/03/09 12:13:21;;;;;;;9.43;5.75;;;14.70;32.30;;;;;;5140981;27;39090;-56
2022/03/09 12:16:22;;;;;;;11.77;5.80;;;14.70;32.40;;;;;;5140194;27;36588;-56
2022/03/09 12:18:52;;;;;;;11.18;5.88;;;14.60;32.10;;;;;;5140673;27;37386;-56
2022/03/09 12:21:42;;;;;;;10.77;6.13;;;14.60;32.80;;;;;;5141056;27;40059;-55
2022/03/09 12:24:31;;;;;;;9.43;6.70;;;14.50;32.40;;;;;;5139549;27;37010;-55
2022/03/09 12:26:59;;;;;;;7.95;5.40;;;14.60;32.20;;;;;;5140671;27;36790;-56
2022/03/09 12:29:44;;;;;;;10.23;6.35;;;14.50;31.70;;;;;;5139041;27;37426;-55
2022/03/09 12:32:14;;;;;;;11.20;6.43;;;14.40;32.40;;;;;;5139952;27;37918;-55
2022/03/09 12:34:44;;;;;;;9.40;5.85;;;14.30;32.80;;;;;;5140224;27;39623;-55
2022/03/09 12:37:13;;;;;;;10.27;6.90;;;14.30;32.70;;;;;;5141022;27;36776;-56
2022/03/09 12:39:48;;;;;;;11.82;6.90;;;14.20;32.00;;;;;;5139975;27;37262;-56
2022/03/09 12:42:18;;;;;;;11.52;6.32;;;14.20;31.80;;;;;;5141177;27;37776;-56
2022/03/09 12:44:46;;;;;;;12.75;7.95;;;14.10;31.30;;;;;;5138944;27;38160;-56
2022/03/09 12:47:15;;;;;;;9.23;6.15;;;14.00;31.70;;;;;;5139788;27;37117;-55
2022/03/09 12:49:44;;;;;;;11.52;6.28;;;13.90;32.00;;;;;;5140192;27;39672;-57
2022/03/09 12:52:14;;;;;;;11.23;6.38;;;13.80;32.40;;;;;;5139000;27;37020;-56
2022/03/09 12:54:44;;;;;;;11.50;6.45;;;13.70;31.90;;;;;;5139059;27;36239;-56
2022/03/09 12:57:16;;;;;;;12.77;6.57;;;13.70;32.20;;;;;;5140533;27;36571;-55
2022/03/09 13:00:00;;;;;;;11.35;6.82;;;13.70;32.80;;;;;;5139905;27;37661;-56
2022/03/09 13:02:40;;;;;;;10.38;6.28;;;13.50;31.10;;;;;;5138850;27;36404;-56
2022/03/09 13:05:08;;;;;;;10.02;6.35;;;13.50;32.10;;;;;;5140845;27;37235;-56